Time;durP1;ratioP1;P1;durP2;ratioP2;P2;SDS_P1;SDS_P2;PMS_P1;PMS_P2;Temp;Humidity;BMP_temperature;BMP_pressure;BME280_temperature;BME280_humidity;BME280_pressure;Samples;Min_cycle;Max_cycle;Signal;HPM_P1;HPM_P2
2023/07/10 00:01:26;;;;;;;1999.90;999.90;;;;;;;21.93;100.00;98382.19;5074344;28;20027;-73
2023/07/10 00:03:52;;;;;;;1999.90;999.90;;;;;;;21.90;100.00;98378.13;5098363;28;20030;-74
2023/07/10 00:06:18;;;;;;;1999.90;999.90;;;;;;;21.85;100.00;98386.72;5099213;28;20107;-73
2023/07/10 00:08:44;;;;;;;1999.90;999.90;;;;;;;21.78;100.00;98386.53;5104890;28;20269;-74
2023/07/10 00:11:18;;;;;;;1999.90;999.90;;;;;;;21.78;100.00;98380.97;5092513;28;20032;-74
2023/07/10 00:13:45;;;;;;;1999.90;999.90;;;;;;;21.81;100.00;98371.91;5090726;28;20024;-73
2023/07/10 00:16:21;;;;;;;1999.90;999.90;;;;;;;21.83;100.00;98377.94;5090709;28;20077;-72
2023/07/10 00:18:48;;;;;;;1999.90;999.90;;;;;;;21.69;100.00;98355.28;5090719;28;20028;-73
2023/07/10 00:21:13;;;;;;;1999.90;999.90;;;;;;;21.71;100.00;98378.81;5090755;28;20020;-72
2023/07/10 00:23:39;;;;;;;1999.90;999.90;;;;;;;21.61;100.00;98375.75;5090368;28;20515;-74
2023/07/10 00:26:12;;;;;;;1999.90;999.90;;;;;;;21.66;100.00;98378.25;5090690;28;20028;-72
2023/07/10 00:28:37;;;;;;;1999.90;999.90;;;;;;;21.73;100.00;98386.81;5091145;28;20035;-73
2023/07/10 00:31:03;;;;;;;1999.90;999.90;;;;;;;21.71;100.00;98384.38;5091229;28;20020;-73
2023/07/10 00:33:28;;;;;;;1999.90;999.90;;;;;;;21.65;100.00;98382.22;5092772;28;20081;-73
2023/07/10 00:35:53;;;;;;;1999.90;999.90;;;;;;;21.56;100.00;98373.22;5091094;28;20032;-75
2023/07/10 00:38:24;;;;;;;1999.90;999.90;;;;;;;21.53;100.00;98377.53;5093077;28;20081;-74
2023/07/10 00:40:49;;;;;;;1999.90;999.90;;;;;;;21.48;100.00;98363.06;5094040;28;20069;-73
2023/07/10 00:43:44;;;;;;;1999.90;999.90;;;;;;;21.41;100.00;98376.78;5095128;28;20035;-73
2023/07/10 00:46:19;;;;;;;1999.90;999.90;;;;;;;21.53;100.00;98373.94;5094149;28;20036;-73
2023/07/10 00:48:53;;;;;;;1999.90;999.90;;;;;;;21.43;100.00;98371.66;5094380;28;20130;-74
2023/07/10 00:51:23;;;;;;;1999.90;999.90;;;;;;;21.49;100.00;98376.63;5094528;28;20024;-74
2023/07/10 00:53:51;;;;;;;1999.90;999.90;;;;;;;21.59;100.00;98373.31;5093231;28;20035;-74
2023/07/10 00:56:19;;;;;;;1999.90;999.90;;;;;;;21.73;100.00;98375.69;5093063;28;20043;-73
2023/07/10 00:58:48;;;;;;;1999.90;999.90;;;;;;;21.68;100.00;98375.91;5094356;28;20094;-73
2023/07/10 01:01:23;;;;;;;1999.90;999.90;;;;;;;21.57;100.00;98386.78;5094394;28;20599;-73
2023/07/10 01:03:51;;;;;;;1999.90;999.90;;;;;;;21.49;100.00;98384.19;5094338;28;20047;-74
2023/07/10 01:06:25;;;;;;;1999.90;999.90;;;;;;;21.51;100.00;98387.41;5094332;28;20551;-73
2023/07/10 01:09:03;;;;;;;1999.90;999.90;;;;;;;21.59;100.00;98390.03;5094172;28;20127;-74
2023/07/10 01:11:29;;;;;;;1999.90;999.90;;;;;;;21.53;100.00;98390.63;5094155;28;20036;-73
2023/07/10 01:13:56;;;;;;;1999.90;999.90;;;;;;;21.41;100.00;98390.69;5093870;28;20035;-74
2023/07/10 01:16:24;;;;;;;1999.90;999.90;;;;;;;21.32;100.00;98386.13;5094145;28;20032;-74
2023/07/10 01:18:49;;;;;;;1999.90;999.90;;;;;;;21.40;100.00;98383.50;5094058;28;20063;-74
2023/07/10 01:21:37;;;;;;;1999.90;999.90;;;;;;;21.41;100.00;98382.34;5094004;28;20058;-74
2023/07/10 01:24:05;;;;;;;1999.90;999.90;;;;;;;21.34;100.00;98389.34;5092998;28;20028;-73
2023/07/10 01:26:31;;;;;;;1999.90;999.90;;;;;;;21.33;100.00;98384.94;5093620;28;20028;-73
2023/07/10 01:28:58;;;;;;;1999.90;999.90;;;;;;;21.45;100.00;98389.66;5093790;28;20027;-73
2023/07/10 01:31:25;;;;;;;1999.90;999.90;;;;;;;21.30;100.00;98394.00;5094114;28;20465;-73
2023/07/10 01:34:00;;;;;;;1999.90;999.90;;;;;;;21.25;100.00;98382.31;5094982;28;20059;-74
2023/07/10 01:36:30;;;;;;;1999.90;999.90;;;;;;;21.27;100.00;98385.53;5097650;28;20032;-73
2023/07/10 01:39:16;;;;;;;1999.90;999.90;;;;;;;21.26;100.00;98387.53;5096407;28;20059;-73
2023/07/10 01:41:43;;;;;;;1999.90;999.90;;;;;;;21.27;100.00;98391.09;5093574;28;20028;-73
2023/07/10 01:44:24;;;;;;;1999.90;999.90;;;;;;;21.18;100.00;98385.69;5093583;28;20039;-73
2023/07/10 01:46:50;;;;;;;1999.90;999.90;;;;;;;21.14;100.00;98390.38;5093465;28;20032;-73
2023/07/10 01:49:18;;;;;;;1999.90;999.90;;;;;;;21.13;100.00;98385.97;5093060;28;20064;-73
2023/07/10 01:51:44;;;;;;;1999.90;999.90;;;;;;;21.06;100.00;98382.94;5093302;28;20020;-73
2023/07/10 01:54:14;;;;;;;1999.90;999.90;;;;;;;21.16;100.00;98378.88;5093374;28;20481;-73
2023/07/10 01:56:41;;;;;;;1999.90;999.90;;;;;;;21.20;100.00;98377.00;5093265;28;20036;-73
2023/07/10 01:59:07;;;;;;;1999.90;999.90;;;;;;;21.13;100.00;98372.06;5093292;28;20139;-73
2023/07/10 02:01:32;;;;;;;1999.90;999.90;;;;;;;21.08;100.00;98369.47;5093042;28;20111;-74
2023/07/10 02:03:57;;;;;;;1999.90;999.90;;;;;;;21.01;100.00;98369.28;5093042;28;20032;-73
2023/07/10 02:06:23;;;;;;;1999.90;999.90;;;;;;;21.06;100.00;98371.81;5093178;28;20111;-74
2023/07/10 02:08:48;;;;;;;1999.90;999.90;;;;;;;21.02;100.00;98379.22;5093413;28;20124;-74
2023/07/10 02:11:14;;;;;;;1999.90;999.90;;;;;;;21.02;100.00;98386.78;5093060;28;20024;-73
2023/07/10 02:13:40;;;;;;;1999.90;999.90;;;;;;;21.02;100.00;98382.03;5093092;28;20024;-73
2023/07/10 02:16:09;;;;;;;1999.90;999.90;;;;;;;20.97;100.00;98375.91;5095778;28;20488;-74
2023/07/10 02:18:34;;;;;;;1999.90;999.90;;;;;;;20.95;100.00;98386.59;5092991;28;20024;-74
2023/07/10 02:20:59;;;;;;;1999.90;999.90;;;;;;;20.97;100.00;98376.72;5092875;28;20021;-74
2023/07/10 02:23:25;;;;;;;1999.90;999.90;;;;;;;20.93;100.00;98367.44;5092775;28;20032;-74
2023/07/10 02:25:50;;;;;;;1999.90;999.90;;;;;;;20.94;100.00;98371.03;5092684;28;20118;-74
2023/07/10 02:28:16;;;;;;;1999.90;999.90;;;;;;;20.82;100.00;98366.34;5092721;28;20024;-74
2023/07/10 02:30:41;;;;;;;1999.90;999.90;;;;;;;20.72;100.00;98367.63;5092524;28;20028;-73
2023/07/10 02:33:06;;;;;;;1999.90;999.90;;;;;;;20.86;100.00;98375.59;5092484;28;20483;-74
2023/07/10 02:35:32;;;;;;;1999.90;999.90;;;;;;;20.83;100.00;98373.53;5092543;28;20073;-74
2023/07/10 02:37:57;;;;;;;1999.90;999.90;;;;;;;20.83;100.00;98374.31;5092818;28;20727;-73
2023/07/10 02:40:23;;;;;;;1999.90;999.90;;;;;;;20.69;100.00;98368.34;5092392;28;20028;-74
2023/07/10 02:42:48;;;;;;;1999.90;999.90;;;;;;;;;;5092442;28;20032;-73
2023/07/10 02:45:14;;;;;;;1999.90;999.90;;;;;;;20.50;100.00;98370.13;5092402;28;20024;-73
2023/07/10 02:47:39;;;;;;;1999.90;999.90;;;;;;;20.44;100.00;98352.88;5093835;28;20139;-73
2023/07/10 02:50:05;;;;;;;1999.90;999.90;;;;;;;20.47;100.00;98356.91;5092325;28;20032;-73
2023/07/10 02:52:30;;;;;;;1999.90;999.90;;;;;;;20.36;100.00;98359.34;5091888;28;20016;-74
2023/07/10 02:54:56;;;;;;;1999.90;999.90;;;;;;;20.42;100.00;98362.72;5092191;28;20112;-73
2023/07/10 02:57:21;;;;;;;1999.90;999.90;;;;;;;20.28;100.00;98371.41;5092111;28;20024;-74
2023/07/10 02:59:46;;;;;;;1999.90;999.90;;;;;;;20.29;100.00;98368.31;5091667;28;20055;-73
2023/07/10 03:02:12;;;;;;;1999.90;999.90;;;;;;;20.38;100.00;98370.13;5090357;28;20061;-74
2023/07/10 03:04:37;;;;;;;1999.90;999.90;;;;;;;20.46;100.00;98372.78;5091809;28;20524;-73
2023/07/10 03:07:03;;;;;;;1999.90;999.90;;;;;;;20.55;100.00;98372.66;5091828;28;20025;-73
2023/07/10 03:09:28;;;;;;;1999.90;999.90;;;;;;;20.34;100.00;98372.78;5092287;28;20024;-73
2023/07/10 03:11:53;;;;;;;1999.90;999.90;;;;;;;20.26;100.00;98379.31;5091889;28;20024;-73
2023/07/10 03:14:19;;;;;;;1999.90;999.90;;;;;;;20.27;100.00;98378.94;5091673;28;20032;-73
2023/07/10 03:16:44;;;;;;;1999.90;999.90;;;;;;;20.21;100.00;98391.41;5091700;28;20067;-73
2023/07/10 03:19:10;;;;;;;1999.90;999.90;;;;;;;20.09;100.00;98382.28;5091704;28;20102;-73
2023/07/10 03:21:35;;;;;;;1999.90;999.90;;;;;;;20.25;100.00;98381.22;5091606;28;20028;-74
2023/07/10 03:24:01;;;;;;;1999.90;999.90;;;;;;;20.32;100.00;98371.53;5091604;28;20023;-73
2023/07/10 03:26:27;;;;;;;1999.90;999.90;;;;;;;20.26;100.00;98380.13;5091529;28;20039;-74
2023/07/10 03:29:11;;;;;;;1999.90;999.90;;;;;;;20.17;100.00;98387.69;5091607;28;20028;-73
2023/07/10 03:31:36;;;;;;;1999.90;999.90;;;;;;;20.00;100.00;98371.28;5091308;28;20480;-73
2023/07/10 03:34:02;;;;;;;1999.90;999.90;;;;;;;20.11;100.00;98382.75;5091364;28;20031;-74
2023/07/10 03:36:28;;;;;;;1999.90;999.90;;;;;;;20.15;100.00;98369.75;5091346;28;20089;-73
2023/07/10 03:38:53;;;;;;;1999.90;999.90;;;;;;;20.41;100.00;98372.22;5091766;28;20028;-73
2023/07/10 03:41:19;;;;;;;1999.90;999.90;;;;;;;20.52;100.00;98365.00;5076666;28;20043;-73
2023/07/10 03:43:44;;;;;;;1999.90;999.90;;;;;;;20.73;100.00;98374.00;5091050;28;20031;-74
2023/07/10 03:46:10;;;;;;;1999.90;999.90;;;;;;;20.81;100.00;98382.22;5084735;28;20119;-74
2023/07/10 03:48:36;;;;;;;1999.90;999.90;;;;;;;20.76;100.00;98390.00;5073125;28;20048;-73
2023/07/10 03:51:02;;;;;;;1999.90;999.90;;;;;;;21.17;100.00;98395.22;5070468;28;20021;-74
2023/07/10 03:53:28;;;;;;;1999.90;999.90;;;;;;;21.53;100.00;98393.41;5069138;28;20024;-74
2023/07/10 03:55:54;;;;;;;1999.90;999.90;;;;;;;21.96;100.00;98407.34;5071728;28;20443;-76
2023/07/10 03:58:26;;;;;;;1999.90;999.90;;;;;;;22.40;100.00;98397.69;5081320;28;20092;-74
2023/07/10 04:00:51;;;;;;;1999.90;999.90;;;;;;;22.58;100.00;98403.72;5093013;28;20024;-85
2023/07/10 04:03:20;;;;;;;1999.90;999.90;;;;;;;22.39;100.00;98403.66;5098498;28;20380;-85
2023/07/10 04:05:49;;;;;;;1999.90;999.90;;;;;;;22.45;100.00;98405.00;5097709;28;20103;-83
2023/07/10 04:08:15;;;;;;;1999.90;999.90;;;;;;;22.75;100.00;98413.66;5099641;28;20031;-81
2023/07/10 04:10:47;;;;;;;1999.90;999.90;;;;;;;23.23;100.00;98413.16;5094224;28;20032;-82
2023/07/10 04:13:12;;;;;;;1999.90;999.90;;;;;;;23.50;100.00;98410.50;5099833;28;20036;-85
2023/07/10 04:15:37;;;;;;;1999.90;999.90;;;;;;;22.96;100.00;98396.63;5103032;28;20062;-85
2023/07/10 04:18:03;;;;;;;1999.90;999.90;;;;;;;22.39;100.00;98406.44;5099324;28;20032;-83
2023/07/10 04:20:28;;;;;;;1999.90;999.90;;;;;;;22.37;100.00;98409.56;5101925;28;20032;-85
2023/07/10 04:22:54;;;;;;;1999.90;999.90;;;;;;;22.36;100.00;98419.13;5103892;28;20035;-84
2023/07/10 04:25:19;;;;;;;1999.90;999.90;;;;;;;23.47;100.00;98426.03;5098239;28;20096;-83
2023/07/10 04:27:44;;;;;;;1999.90;999.90;;;;;;;24.18;100.00;98431.00;5101956;28;20492;-83
2023/07/10 04:30:12;;;;;;;1999.90;999.90;;;;;;;24.95;100.00;98434.25;5103658;28;20079;-86
2023/07/10 04:32:37;;;;;;;1999.90;999.90;;;;;;;24.62;100.00;98438.91;5102231;28;20035;-85
2023/07/10 04:35:03;;;;;;;1999.90;999.90;;;;;;;23.65;100.00;98440.34;5091437;28;20029;-84
2023/07/10 04:37:29;;;;;;;1999.90;999.90;;;;;;;23.34;100.00;98444.06;5063924;28;20075;-84
2023/07/10 04:39:54;;;;;;;1999.90;999.90;;;;;;;23.42;100.00;98446.69;5079833;28;20052;-84
2023/07/10 04:42:20;;;;;;;1999.90;999.90;;;;;;;23.66;100.00;98455.94;5081365;28;20028;-86
2023/07/10 04:44:45;;;;;;;1999.90;999.90;;;;;;;23.85;100.00;98453.09;5080094;28;20029;-80
2023/07/10 04:47:10;;;;;;;1999.90;999.90;;;;;;;23.49;100.00;98446.03;5079570;28;20037;-82
2023/07/10 04:49:36;;;;;;;1999.90;999.90;;;;;;;23.10;100.00;98441.56;5077877;28;20024;-81
2023/07/10 04:52:01;;;;;;;1999.90;999.90;;;;;;;22.83;100.00;98446.16;5079565;28;20457;-81
2023/07/10 04:54:26;;;;;;;1999.90;999.90;;;;;;;22.74;100.00;98434.41;5079037;28;20029;-87
2023/07/10 04:56:52;;;;;;;1999.90;999.90;;;;;;;22.93;100.00;98442.78;5073951;28;20051;-80
2023/07/10 04:59:18;;;;;;;1999.90;999.90;;;;;;;22.99;100.00;98446.94;5073984;28;20496;-81
2023/07/10 05:01:44;;;;;;;1999.90;999.90;;;;;;;23.31;100.00;98447.59;5078246;28;20025;-82
2023/07/10 05:04:09;;;;;;;1999.90;999.90;;;;;;;23.33;100.00;98448.88;5079603;28;20032;-84
2023/07/10 05:06:36;;;;;;;1999.90;999.90;;;;;;;23.14;100.00;98440.47;5077090;28;20029;-79
2023/07/10 05:09:02;;;;;;;1999.90;999.90;;;;;;;23.11;100.00;98437.59;5072031;28;20476;-80
2023/07/10 05:11:29;;;;;;;1999.90;999.90;;;;;;;23.18;100.00;98444.13;5075749;28;20024;-79
2023/07/10 05:13:55;;;;;;;1999.90;999.90;;;;;;;23.12;100.00;98445.59;5088687;28;20016;-80
2023/07/10 05:16:22;;;;;;;1999.90;999.90;;;;;;;22.94;100.00;98442.44;5070909;28;20029;-80
2023/07/10 05:18:47;;;;;;;1999.90;999.90;;;;;;;23.10;100.00;98438.78;5070836;28;20062;-80
2023/07/10 05:21:13;;;;;;;1999.90;999.90;;;;;;;23.15;100.00;98432.91;5068936;28;20442;-81
2023/07/10 05:23:38;;;;;;;1999.90;999.90;;;;;;;23.28;100.00;98437.97;5071148;28;20029;-80
2023/07/10 05:26:12;;;;;;;1999.90;999.90;;;;;;;23.17;100.00;98439.75;5073944;28;20078;-80
2023/07/10 05:28:38;;;;;;;1999.90;999.90;;;;;;;23.10;100.00;98438.78;5073927;28;20035;-81
2023/07/10 05:31:04;;;;;;;1999.90;999.90;;;;;;;23.21;100.00;98437.81;5073736;28;20087;-80
2023/07/10 05:33:30;;;;;;;1999.90;999.90;;;;;;;23.24;100.00;98434.28;5072690;28;20086;-81
2023/07/10 05:35:59;;;;;;;1999.90;999.90;;;;;;;23.46;100.00;98432.81;5074161;28;20032;-80
2023/07/10 05:38:27;;;;;;;1999.90;999.90;;;;;;;23.82;100.00;98445.47;5074444;28;20050;-80
2023/07/10 05:40:53;;;;;;;1999.90;999.90;;;;;;;24.31;100.00;98446.38;5086672;28;20027;-80
2023/07/10 05:43:19;;;;;;;1999.90;999.90;;;;;;;24.46;100.00;98442.63;5100115;28;20588;-75
2023/07/10 05:45:45;;;;;;;1999.90;999.90;;;;;;;24.35;100.00;98436.06;5093548;28;20110;-77
2023/07/10 05:48:10;;;;;;;1999.90;999.90;;;;;;;24.25;100.00;98447.88;5094061;28;20047;-76
2023/07/10 05:50:37;;;;;;;1999.90;999.90;;;;;;;24.21;100.00;98444.22;5093335;28;20040;-76
2023/07/10 05:53:02;;;;;;;1999.90;999.90;;;;;;;23.82;100.00;98437.09;5092734;28;20036;-76
2023/07/10 05:55:28;;;;;;;1999.90;999.90;;;;;;;23.85;100.00;98436.34;5100767;28;21934;-77
2023/07/10 05:57:53;;;;;;;1999.90;999.90;;;;;;;24.08;100.00;98447.53;5096838;28;20496;-75
2023/07/10 06:00:19;;;;;;;1999.90;999.90;;;;;;;23.81;100.00;98443.84;5093867;28;20028;-77
2023/07/10 06:02:45;;;;;;;1999.90;999.90;;;;;;;23.84;100.00;98445.88;5093393;28;20039;-77
2023/07/10 06:05:10;;;;;;;1999.90;999.90;;;;;;;24.16;100.00;98443.72;5093382;28;20426;-78
2023/07/10 06:07:35;;;;;;;1999.90;999.90;;;;;;;24.15;100.00;98451.28;5090782;28;20040;-82
2023/07/10 06:10:01;;;;;;;1999.90;999.90;;;;;;;24.55;100.00;98444.38;5098448;28;20027;-81
2023/07/10 06:12:26;;;;;;;1999.90;999.90;;;;;;;24.42;100.00;98446.56;5085066;28;20066;-82
2023/07/10 06:14:51;;;;;;;1999.90;999.90;;;;;;;24.24;100.00;98448.28;5102615;28;20032;-80
2023/07/10 06:17:17;;;;;;;1999.90;999.90;;;;;;;24.35;100.00;98441.66;5094596;28;20024;-75
2023/07/10 06:19:42;;;;;;;1999.90;999.90;;;;;;;24.67;100.00;98442.19;5092989;28;20020;-74
2023/07/10 06:22:10;;;;;;;1999.90;999.90;;;;;;;25.79;100.00;98447.75;5081401;28;20119;-75
2023/07/10 06:24:35;;;;;;;1999.90;999.90;;;;;;;26.06;100.00;98454.81;5072791;28;20024;-76
2023/07/10 06:27:02;;;;;;;1999.90;999.90;;;;;;;25.75;100.00;98449.69;5072557;28;20027;-76
2023/07/10 06:29:27;;;;;;;1999.90;999.90;;;;;;;25.81;100.00;98455.78;5072715;28;20068;-73
2023/07/10 06:31:52;;;;;;;1999.90;999.90;;;;;;;26.04;100.00;98459.22;5072386;28;20029;-74
2023/07/10 06:34:18;;;;;;;1999.90;999.90;;;;;;;26.18;100.00;98459.41;5072161;28;20846;-74
2023/07/10 06:36:43;;;;;;;1999.90;999.90;;;;;;;26.41;100.00;98462.81;5084615;28;20044;-73
2023/07/10 06:39:08;;;;;;;1999.90;999.90;;;;;;;26.50;100.00;98457.66;5092081;28;20466;-74
2023/07/10 06:41:34;;;;;;;1999.90;999.90;;;;;;;26.56;100.00;98460.94;5091225;28;20035;-75
2023/07/10 06:43:59;;;;;;;1999.90;999.90;;;;;;;26.38;100.00;98455.16;5092593;28;20055;-74
2023/07/10 06:46:25;;;;;;;1999.90;999.90;;;;;;;26.21;100.00;98461.44;5092528;28;20122;-74
2023/07/10 06:48:51;;;;;;;1999.90;999.90;;;;;;;26.50;100.00;98463.28;5092275;28;20087;-74
2023/07/10 06:51:16;;;;;;;1999.90;999.90;;;;;;;27.39;100.00;98467.53;5090856;28;20085;-74
2023/07/10 06:53:42;;;;;;;1999.90;999.90;;;;;;;27.61;100.00;98469.28;5092263;28;20433;-73
2023/07/10 06:56:07;;;;;;;1999.90;999.90;;;;;;;27.36;100.00;98471.13;5092066;28;20069;-74
2023/07/10 06:58:34;;;;;;;1999.90;999.90;;;;;;;27.26;100.00;98469.06;5091940;28;20024;-74
2023/07/10 07:01:00;;;;;;;1999.90;999.90;;;;;;;26.87;100.00;98468.84;5092349;28;20035;-74
2023/07/10 07:03:27;;;;;;;1999.90;999.90;;;;;;;26.86;100.00;98469.22;5092103;28;20461;-76
2023/07/10 07:05:53;;;;;;;1999.90;999.90;;;;;;;27.40;100.00;98471.97;5091977;28;20130;-74
2023/07/10 07:08:20;;;;;;;1999.90;999.90;;;;;;;27.40;100.00;98471.16;5092314;28;20020;-72
2023/07/10 07:10:46;;;;;;;1999.90;999.90;;;;;;;27.21;100.00;98460.22;5092161;28;20020;-74
2023/07/10 07:13:12;;;;;;;1999.90;999.90;;;;;;;26.63;100.00;98457.41;5091656;28;20520;-74
2023/07/10 07:15:37;;;;;;;1999.90;999.90;;;;;;;26.83;100.00;98461.56;5091770;28;20038;-73
2023/07/10 07:18:04;;;;;;;1999.90;999.90;;;;;;;27.04;100.00;98447.66;5091691;28;20396;-74
2023/07/10 07:20:30;;;;;;;1999.90;999.90;;;;;;;27.06;100.00;98448.09;5091581;28;20023;-75
2023/07/10 07:22:56;;;;;;;1999.90;999.90;;;;;;;27.52;100.00;98446.34;5094094;28;20031;-73
2023/07/10 07:25:21;;;;;;;1999.90;999.90;;;;;;;27.85;100.00;98444.47;5096647;28;20036;-76
2023/07/10 07:27:47;;;;;;;1999.90;999.90;;;;;;;28.10;94.21;98445.31;5093984;28;20114;-74
2023/07/10 07:30:12;;;;;;;1999.90;999.90;;;;;;;28.13;92.85;98444.56;5091456;28;20469;-73
2023/07/10 07:32:37;;;;;;;1999.90;999.90;;;;;;;28.12;90.20;98442.94;5091353;28;20373;-74
2023/07/10 07:35:03;;;;;;;1999.90;999.90;;;;;;;27.45;94.43;98437.88;5091954;28;20048;-73
2023/07/10 07:37:28;;;;;;;1999.90;999.90;;;;;;;27.41;96.50;98434.22;5091531;28;20024;-73
2023/07/10 07:39:56;;;;;;;1999.90;999.90;;;;;;;27.75;91.85;98443.22;5091809;28;20119;-73
2023/07/10 07:42:21;;;;;;;1999.90;999.90;;;;;;;27.55;94.17;98437.13;5091296;28;20023;-73
2023/07/10 07:44:47;;;;;;;1999.90;999.90;;;;;;;27.60;93.87;98431.09;5091396;28;20020;-73
2023/07/10 07:47:12;;;;;;;1999.90;999.90;;;;;;;28.17;91.66;98437.72;5090869;28;20074;-74
2023/07/10 07:49:38;;;;;;;1999.90;999.90;;;;;;;28.63;87.48;98440.53;5090964;28;20048;-74
2023/07/10 07:52:03;;;;;;;1999.90;999.90;;;;;;;29.05;84.63;98438.91;5091077;28;20036;-73
2023/07/10 07:54:29;;;;;;;1999.90;999.90;;;;;;;28.76;83.82;98448.63;5091195;28;20028;-74
2023/07/10 07:56:55;;;;;;;1999.90;999.90;;;;;;;28.55;85.05;98438.94;5090951;28;20028;-74
2023/07/10 07:59:22;;;;;;;1999.90;999.90;;;;;;;28.85;83.22;98440.56;5091191;28;20089;-73
2023/07/10 08:01:49;;;;;;;1999.90;999.90;;;;;;;28.78;84.14;98446.19;5090504;28;20050;-74
2023/07/10 08:04:14;;;;;;;1999.90;999.90;;;;;;;28.84;83.25;98439.75;5096335;28;20024;-74
2023/07/10 08:06:39;;;;;;;1999.90;999.90;;;;;;;28.81;82.99;98437.75;5099470;28;20058;-74
2023/07/10 08:09:05;;;;;;;1999.90;999.90;;;;;;;29.54;79.95;98441.59;5091327;28;20522;-73
2023/07/10 08:11:30;;;;;;;1999.90;999.90;;;;;;;30.03;76.88;98442.59;5090798;28;20020;-73
2023/07/10 08:13:55;;;;;;;1999.90;999.90;;;;;;;30.43;74.72;98435.47;5090600;28;20091;-74
2023/07/10 08:16:21;;;;;;;1999.90;999.90;;;;;;;30.86;72.61;98433.06;5090655;28;20118;-74
2023/07/10 08:18:46;;;;;;;1999.90;999.90;;;;;;;31.04;70.89;98433.75;5090574;28;20484;-74
2023/07/10 08:21:13;;;;;;;1999.90;999.90;;;;;;;31.08;67.81;98440.13;5090677;28;20390;-75
2023/07/10 08:23:39;;;;;;;1999.90;999.90;;;;;;;30.78;69.23;98435.97;5090892;28;20057;-75
2023/07/10 08:26:05;;;;;;;1999.90;999.90;;;;;;;30.36;70.72;98425.00;5094617;28;20813;-74
2023/07/10 08:28:30;;;;;;;1999.90;999.90;;;;;;;30.76;69.73;98429.16;5098148;28;20124;-73
2023/07/10 08:30:56;;;;;;;1999.90;999.90;;;;;;;30.67;69.39;98423.16;5097605;28;20058;-76
2023/07/10 08:33:21;;;;;;;1999.90;999.90;;;;;;;30.28;70.19;98414.97;5092374;28;20472;-73
2023/07/10 08:35:55;;;;;;;1999.90;999.90;;;;;;;30.64;70.16;98415.50;5090734;28;20069;-73
2023/07/10 08:38:21;;;;;;;1999.90;999.90;;;;;;;30.83;68.74;98414.91;5090778;28;20024;-72
2023/07/10 08:40:49;;;;;;;1999.90;999.90;;;;;;;30.98;68.12;98412.81;5090748;28;20325;-72
2023/07/10 08:43:34;;;;;;;1999.90;999.90;;;;;;;30.56;69.74;98414.78;5090457;28;20024;-74
2023/07/10 08:46:03;;;;;;;;;;;;;;;31.01;67.91;98414.78;5090943;28;20039;-75
2023/07/10 08:48:34;;;;;;;1999.90;999.90;;;;;;;31.16;64.53;98410.59;5090063;28;19960;-75
2023/07/10 08:51:13;;;;;;;1999.90;999.90;;;;;;;31.04;65.79;98411.94;5088740;28;20362;-75
2023/07/10 08:53:44;;;;;;;1999.90;999.90;;;;;;;30.75;68.37;98411.38;5089057;28;20051;-75
2023/07/10 08:56:25;;;;;;;1999.90;999.90;;;;;;;30.91;67.63;98410.00;5089971;28;20039;-74
2023/07/10 08:58:55;;;;;;;1999.90;999.90;;;;;;;31.04;66.63;98411.94;5090236;28;20676;-74
2023/07/10 09:01:33;;;;;;;1999.90;999.90;;;;;;;31.31;65.71;98406.34;5094436;28;20020;-75
2023/07/10 09:04:04;;;;;;;1999.90;999.90;;;;;;;31.42;64.37;98409.84;5093907;28;20384;-74
2023/07/10 09:06:41;;;;;;;1999.90;999.90;;;;;;;31.30;64.86;98411.22;5094181;28;20093;-73
2023/07/10 09:09:19;;;;;;;1999.90;999.90;;;;;;;31.52;63.82;98408.13;5101462;28;20040;-77
2023/07/10 09:11:48;;;;;;;1999.90;999.90;;;;;;;31.29;63.28;98398.28;5096172;28;20032;-73
2023/07/10 09:14:22;;;;;;;1999.90;999.90;;;;;;;31.14;63.87;98393.22;5094279;28;20047;-73
2023/07/10 09:16:51;;;;;;;1999.90;999.90;;;;;;;31.62;62.03;98395.88;5094289;28;20028;-73
2023/07/10 09:19:19;;;;;;;1999.90;999.90;;;;;;;31.46;63.43;98402.13;5092664;28;20625;-74
2023/07/10 09:21:44;;;;;;;1999.90;999.90;;;;;;;31.44;62.18;98393.28;5092677;28;20080;-72
2023/07/10 09:24:22;;;;;;;1999.90;999.90;;;;;;;30.24;67.02;98381.13;5093997;28;20035;-74
2023/07/10 09:26:48;;;;;;;1999.90;999.90;;;;;;;29.94;68.72;98380.97;5092698;28;20073;-73
2023/07/10 09:29:26;;;;;;;1999.90;999.90;;;;;;;29.95;68.87;98384.56;5093900;28;20027;-73
2023/07/10 09:32:00;;;;;;;1999.90;999.90;;;;;;;30.69;66.61;98390.44;5093731;28;20024;-75
2023/07/10 09:34:33;;;;;;;1999.90;999.90;;;;;;;31.02;64.73;98379.63;5093791;28;20080;-75
2023/07/10 09:36:59;;;;;;;1999.90;999.90;;;;;;;31.27;62.35;98385.78;5093639;28;20035;-74
2023/07/10 09:39:27;;;;;;;1999.90;999.90;;;;;;;31.38;62.18;98378.00;5093820;28;20414;-74
2023/07/10 09:41:53;;;;;;;1999.90;999.90;;;;;;;31.64;60.45;98368.75;5093365;28;20033;-75
2023/07/10 09:44:22;;;;;;;1999.90;999.90;;;;;;;31.85;60.48;98373.34;5093337;28;20028;-74
2023/07/10 09:46:48;;;;;;;1999.90;999.90;;;;;;;32.11;59.89;98371.75;5093301;28;20028;-74
2023/07/10 09:49:17;;;;;;;1999.90;999.90;;;;;;;32.45;58.66;98369.56;5093084;28;20488;-73
2023/07/10 09:52:00;;;;;;;1999.90;999.90;;;;;;;32.24;60.06;98367.06;5093638;28;20031;-74
2023/07/10 09:54:35;;;;;;;1999.90;999.90;;;;;;;32.26;59.06;98368.28;5093216;28;20024;-72
2023/07/10 09:57:03;;;;;;;1999.90;999.90;;;;;;;32.77;58.58;98378.31;5092044;28;20032;-72
2023/07/10 09:59:31;;;;;;;1999.90;999.90;;;;;;;33.22;55.80;98375.84;5093332;28;20043;-71
2023/07/10 10:02:14;;;;;;;1999.90;999.90;;;;;;;32.78;55.50;98376.28;5092969;28;20120;-73
2023/07/10 10:04:42;;;;;;;1999.90;999.90;;;;;;;33.08;55.32;98378.16;5094160;28;20038;-74
2023/07/10 10:07:19;;;;;;;1999.90;999.90;;;;;;;33.04;54.63;98378.22;5092777;28;20112;-73
2023/07/10 10:09:45;;;;;;;1999.90;999.90;;;;;;;33.70;53.28;98383.78;5093269;28;20127;-73
2023/07/10 10:12:22;;;;;;;1999.90;999.90;;;;;;;33.86;50.61;98378.13;5093371;28;20065;-74
2023/07/10 10:15:02;;;;;;;1999.90;999.90;;;;;;;34.01;50.97;98369.28;5093466;28;20053;-74
2023/07/10 10:17:31;;;;;;;1999.90;999.90;;;;;;;34.45;49.55;98362.94;5101736;28;20095;-75
2023/07/10 10:20:06;;;;;;;1999.90;999.90;;;;;;;34.53;49.30;98367.19;5104009;28;20020;-74
2023/07/10 10:22:32;;;;;;;1999.90;999.90;;;;;;;34.35;49.80;98355.50;5092857;28;20057;-78
2023/07/10 10:24:59;;;;;;;1999.90;999.90;;;;;;;33.97;49.87;98343.81;5095982;28;20070;-75
2023/07/10 10:27:53;;;;;;;1999.90;999.90;;;;;;;34.08;50.67;98352.09;5091271;28;20016;-74
2023/07/10 10:30:28;;;;;;;1999.90;999.90;;;;;;;34.24;48.92;98355.75;5101234;28;20019;-74
2023/07/10 10:33:07;;;;;;;1999.90;999.90;;;;;;;32.82;51.15;98355.16;5099779;28;20023;-75
2023/07/10 10:36:01;;;;;;;1999.90;999.90;;;;;;;33.04;51.20;98344.19;5092993;28;20492;-74
2023/07/10 10:38:35;;;;;;;1999.90;999.90;;;;;;;33.17;51.68;98336.66;5103529;28;20056;-75
2023/07/10 10:41:25;;;;;;;1999.90;999.90;;;;;;;33.21;51.05;98339.41;5105784;28;20027;-75
2023/07/10 10:44:09;;;;;;;1999.90;999.90;;;;;;;33.17;51.68;98327.34;5046382;28;20036;-75
2023/07/10 10:46:57;;;;;;;1999.90;999.90;;;;;;;33.49;51.10;98344.47;5108096;28;20036;-74
2023/07/10 10:49:42;;;;;;;1999.90;999.90;;;;;;;33.98;50.77;98327.56;5095241;28;20116;-73
2023/07/10 10:52:28;;;;;;;1999.90;999.90;;;;;;;33.23;52.55;98323.56;5084334;28;20460;-76
2023/07/10 10:55:15;;;;;;;1999.90;999.90;;;;;;;33.56;52.97;98324.44;5102882;28;20488;-74